createdAt,value
2022-09-10T00:04:40.896Z,12.58
2022-09-10T00:09:41.655Z,12.52
2022-09-10T00:14:42.645Z,12.46
2022-09-10T00:19:43.581Z,12.52
2022-09-10T00:24:44.612Z,12.61
2022-09-10T00:29:45.378Z,12.63
2022-09-10T00:34:47.217Z,12.70
2022-09-10T00:39:48.072Z,12.81
2022-09-10T00:44:57.443Z,12.85
2022-09-10T00:50:12.959Z,12.85
2022-09-10T00:55:16.063Z,12.79
2022-09-10T01:00:17.308Z,12.77
2022-09-10T01:05:19.002Z,12.90
2022-09-10T01:10:27.746Z,12.84
2022-09-10T01:16:07.993Z,12.67
2022-09-10T01:21:23.736Z,12.65
2022-09-10T01:29:14.019Z,12.73
2022-09-10T01:34:26.356Z,12.77
2022-09-10T01:39:28.731Z,12.77
2022-09-10T01:44:50.472Z,12.83
2022-09-10T01:53:20.194Z,12.79
2022-09-10T01:58:39.966Z,12.78
2022-09-10T02:03:54.276Z,12.75
2022-09-10T02:08:59.928Z,12.73
2022-09-10T02:14:01.177Z,12.80
2022-09-10T02:19:27.103Z,12.79
2022-09-10T02:24:27.892Z,12.75
2022-09-10T02:29:28.677Z,12.75
2022-09-10T02:34:29.779Z,12.91
2022-09-10T02:39:30.627Z,12.83
2022-09-10T02:44:31.903Z,12.76
2022-09-10T02:49:34.821Z,12.75
2022-09-10T02:54:36.357Z,12.75
2022-09-10T02:59:37.302Z,12.69
2022-09-10T03:04:38.672Z,12.66
2022-09-10T03:09:40.357Z,12.66
2022-09-10T03:14:42.319Z,12.68
2022-09-10T03:19:43.251Z,12.71
2022-09-10T03:24:46.411Z,12.67
2022-09-10T03:29:47.374Z,12.67
2022-09-10T03:34:50.142Z,12.55
2022-09-10T03:39:51.235Z,12.63
2022-09-10T03:44:52.352Z,12.51
2022-09-10T03:49:53.333Z,12.50
2022-09-10T03:54:54.372Z,12.43
2022-09-10T03:59:55.725Z,12.51
2022-09-10T04:04:58.650Z,12.47
2022-09-10T04:09:59.786Z,12.46
2022-09-10T04:15:02.812Z,12.45
2022-09-10T04:20:04.199Z,12.49
2022-09-10T04:25:07.495Z,12.54
2022-09-10T04:30:10.477Z,12.44
2022-09-10T04:35:14.518Z,12.35
2022-09-10T04:40:15.663Z,12.42
2022-09-10T04:45:18.160Z,12.25
2022-09-10T04:50:20.351Z,12.33
2022-09-10T04:55:42.875Z,12.27
2022-09-10T05:00:44.043Z,12.42
2022-09-10T05:05:47.159Z,12.45
2022-09-10T05:10:48.603Z,12.39
2022-09-10T05:15:50.710Z,12.53
2022-09-10T05:20:52.194Z,12.47
2022-09-10T05:25:55.493Z,12.55
2022-09-10T05:30:56.748Z,12.49
2022-09-10T05:36:00.944Z,12.39
2022-09-10T05:41:02.525Z,12.57
2022-09-10T05:46:04.649Z,12.49
2022-09-10T05:51:06.189Z,12.45
2022-09-10T05:56:07.626Z,12.45
2022-09-10T06:01:10.394Z,12.56
2022-09-10T06:06:11.395Z,12.47
2022-09-10T06:11:17.077Z,12.55
2022-09-10T06:16:22.467Z,12.58
2022-09-10T06:21:28.130Z,12.72
2022-09-10T06:26:30.563Z,12.65
2022-09-10T06:31:35.527Z,12.69
2022-09-10T06:36:37.034Z,12.80
2022-09-10T06:41:38.068Z,12.90
2022-09-10T06:52:14.152Z,13.11
2022-09-10T06:57:15.802Z,13.09
2022-09-10T07:02:16.792Z,13.22
2022-09-10T07:07:19.391Z,13.44
2022-09-10T07:12:20.557Z,13.64
2022-09-10T07:17:21.613Z,13.86
2022-09-10T07:22:22.708Z,13.82
2022-09-10T07:27:24.330Z,13.83
2022-09-10T07:32:25.258Z,13.79
2022-09-10T07:37:33.900Z,13.71
2022-09-10T07:42:37.319Z,13.64
2022-09-10T07:47:40.324Z,13.51
2022-09-10T07:52:41.639Z,13.49
2022-09-10T07:57:45.171Z,13.63
2022-09-10T08:02:46.338Z,13.74
2022-09-10T08:07:53.667Z,13.85
2022-09-10T08:12:55.643Z,13.92
2022-09-10T08:17:59.164Z,14.15
2022-09-10T08:23:01.504Z,14.34
2022-09-10T08:28:02.759Z,14.56
2022-09-10T08:33:04.869Z,14.41
2022-09-10T08:38:08.096Z,14.49
2022-09-10T08:43:11.211Z,14.37
2022-09-10T08:48:20.031Z,14.26
2022-09-10T08:53:49.154Z,14.20
2022-09-10T08:59:42.709Z,14.03
2022-09-10T09:04:57.824Z,13.87
2022-09-10T09:10:00.225Z,13.82
2022-09-10T09:15:17.438Z,13.98
2022-09-10T09:21:11.253Z,14.05
2022-09-10T09:26:15.693Z,14.12
2022-09-10T09:31:30.679Z,14.44
2022-09-10T09:36:45.346Z,14.93
2022-09-10T09:43:08.402Z,15.28
2022-09-10T09:48:15.319Z,15.15
2022-09-10T09:53:21.783Z,15.18
2022-09-10T09:58:28.638Z,15.06
2022-09-10T10:05:13.363Z,14.96
2022-09-10T10:10:23.951Z,14.87
2022-09-10T10:15:43.928Z,14.76
2022-09-10T10:20:44.815Z,14.53
2022-09-10T10:25:48.721Z,14.83
2022-09-10T10:31:00.196Z,15.27
2022-09-10T10:38:12.338Z,15.81
2022-09-10T10:46:16.932Z,16.43
2022-09-10T10:55:03.558Z,16.59
2022-09-10T11:00:09.544Z,16.49
2022-09-10T11:05:32.153Z,16.23
2022-09-10T11:10:44.301Z,16.00
2022-09-10T11:16:01.711Z,15.68
2022-09-10T11:22:51.978Z,15.83
2022-09-10T11:28:00.929Z,15.94
2022-09-10T11:33:19.346Z,15.48
2022-09-10T11:38:28.280Z,14.95
2022-09-10T11:44:58.742Z,14.85
2022-09-10T11:50:17.568Z,15.52
2022-09-10T11:55:18.981Z,16.03
2022-09-10T12:00:20.113Z,16.07
2022-09-10T12:08:51.904Z,16.32
2022-09-10T12:13:52.960Z,16.61
2022-09-10T12:18:56.903Z,16.60
2022-09-10T12:24:01.015Z,16.37
2022-09-10T12:29:03.653Z,17.03
2022-09-10T12:34:16.465Z,17.61
2022-09-10T12:39:23.574Z,17.54
2022-09-10T12:45:43.817Z,17.81
2022-09-10T12:50:54.142Z,17.66
2022-09-10T13:03:02.743Z,18.38
2022-09-10T13:08:33.278Z,17.96
2022-09-10T13:13:40.871Z,18.23
2022-09-10T13:18:42.538Z,18.18
2022-09-10T13:23:49.331Z,17.49
2022-09-10T13:29:07.313Z,17.45
2022-09-10T13:37:25.520Z,18.09
2022-09-10T13:43:29.391Z,18.26
2022-09-10T13:48:46.418Z,17.97
2022-09-10T13:53:48.820Z,17.56
2022-09-10T13:58:52.750Z,17.11
2022-09-10T14:03:53.569Z,16.90
2022-09-10T14:09:03.910Z,16.83
2022-09-10T14:14:10.629Z,16.72
2022-09-10T14:19:20.718Z,16.23
2022-09-10T14:25:30.185Z,15.86
2022-09-10T14:30:31.315Z,15.67
2022-09-10T14:36:22.060Z,15.48
2022-09-10T14:41:26.192Z,15.20
2022-09-10T14:46:50.866Z,15.28
2022-09-10T14:51:52.469Z,15.41
2022-09-10T14:56:56.224Z,15.52
2022-09-10T15:01:59.907Z,15.70
2022-09-10T15:07:01.984Z,15.47
2022-09-10T15:12:28.172Z,15.14
2022-09-10T15:17:28.900Z,15.05
2022-09-10T15:22:31.348Z,15.11
2022-09-10T15:27:32.173Z,15.65
2022-09-10T15:32:33.010Z,16.27
2022-09-10T15:37:33.760Z,16.46
2022-09-10T15:42:34.576Z,16.50
2022-09-10T15:47:35.505Z,16.12
2022-09-10T15:52:37.088Z,15.82
2022-09-10T15:57:39.724Z,15.68
2022-09-10T16:02:41.376Z,15.41
2022-09-10T16:07:43.825Z,15.19
2022-09-10T16:12:44.571Z,14.81
2022-09-10T16:17:45.356Z,14.63
2022-09-10T16:22:47.285Z,14.61
2022-09-10T16:27:48.201Z,14.66
2022-09-10T16:32:50.153Z,14.80
2022-09-10T16:37:50.890Z,14.77
2022-09-10T16:42:52.579Z,14.70
2022-09-10T16:47:54.569Z,14.55
2022-09-10T16:52:55.409Z,14.39
2022-09-10T16:57:56.873Z,14.31
2022-09-10T17:02:58.371Z,14.37
2022-09-10T17:07:59.811Z,14.30
2022-09-10T17:13:00.846Z,14.28
2022-09-10T17:18:01.603Z,14.26
2022-09-10T17:23:02.417Z,14.19
2022-09-10T17:28:04.003Z,14.16
2022-09-10T17:33:05.257Z,14.12
2022-09-10T17:38:06.034Z,14.16
2022-09-10T17:43:07.370Z,14.05
2022-09-10T17:48:08.164Z,14.00
2022-09-10T17:53:09.292Z,13.74
2022-09-10T17:58:11.493Z,13.71
2022-09-10T18:03:13.667Z,13.56
2022-09-10T18:08:14.708Z,13.46
2022-09-10T18:13:15.572Z,13.49
2022-09-10T18:18:16.374Z,13.57
2022-09-10T18:23:18.619Z,13.45
2022-09-10T18:28:19.361Z,13.40
2022-09-10T18:33:20.286Z,13.42
2022-09-10T18:38:25.300Z,13.43
2022-09-10T18:43:30.536Z,13.56
2022-09-10T18:48:33.433Z,13.52
2022-09-10T18:53:34.285Z,13.50
2022-09-10T18:58:36.243Z,13.48
2022-09-10T19:03:41.654Z,13.52
2022-09-10T19:08:53.918Z,13.54
2022-09-10T19:13:56.634Z,13.54
2022-09-10T19:18:59.531Z,13.56
2022-09-10T19:24:01.187Z,13.52
2022-09-10T19:29:03.769Z,13.52
2022-09-10T19:34:06.454Z,13.48
2022-09-10T19:39:09.775Z,13.61
2022-09-10T19:44:12.463Z,13.58
2022-09-10T19:49:13.243Z,13.52
2022-09-10T19:54:14.231Z,13.49
2022-09-10T19:59:15.481Z,13.36
2022-09-10T20:04:16.510Z,13.39
2022-09-10T20:09:17.343Z,13.36
2022-09-10T20:14:19.439Z,13.32
2022-09-10T20:19:21.572Z,13.32
2022-09-10T20:24:23.077Z,13.39
2022-09-10T20:29:24.816Z,13.30
2022-09-10T20:34:26.109Z,13.30
2022-09-10T20:39:26.907Z,13.31
2022-09-10T20:44:29.261Z,13.29
2022-09-10T20:49:30.195Z,13.29
2022-09-10T20:54:31.133Z,13.30
2022-09-10T20:59:31.951Z,13.28
2022-09-10T21:04:33.467Z,13.29
2022-09-10T21:09:34.215Z,13.28
2022-09-10T21:14:35.895Z,13.32
2022-09-10T21:19:36.654Z,13.29
2022-09-10T21:24:38.597Z,13.37
2022-09-10T21:29:39.336Z,13.31
2022-09-10T21:34:40.702Z,13.33
2022-09-10T21:39:41.458Z,13.32
2022-09-10T21:44:42.234Z,13.38
2022-09-10T21:49:42.984Z,13.38
2022-09-10T21:54:43.811Z,13.29
2022-09-10T21:59:44.758Z,13.32
2022-09-10T22:04:45.613Z,13.33
2022-09-10T22:09:46.340Z,13.30
2022-09-10T22:14:47.848Z,13.29
2022-09-10T22:19:51.050Z,13.26
2022-09-10T22:24:52.944Z,13.29
2022-09-10T22:29:55.624Z,13.28
2022-09-10T22:34:57.056Z,13.24
2022-09-10T22:39:59.744Z,13.24
2022-09-10T22:45:00.710Z,13.34
2022-09-10T22:50:01.476Z,13.34
2022-09-10T22:55:02.476Z,13.34
2022-09-10T23:00:04.333Z,13.33
2022-09-10T23:05:05.895Z,13.32
2022-09-10T23:10:07.353Z,13.26
2022-09-10T23:15:09.113Z,13.25
2022-09-10T23:20:11.525Z,13.24
2022-09-10T23:25:12.393Z,13.20
2022-09-10T23:30:15.154Z,13.20
2022-09-10T23:35:16.060Z,13.19
2022-09-10T23:40:17.501Z,13.18
2022-09-10T23:45:18.226Z,13.18
2022-09-10T23:50:19.019Z,13.29
2022-09-10T23:55:19.839Z,13.25
